Time;durP1;ratioP1;P1;durP2;ratioP2;P2;SDS_P1;SDS_P2;PMS_P1;PMS_P2;Temp;Humidity;BMP_temperature;BMP_pressure;BME280_temperature;BME280_humidity;BME280_pressure;Samples;Min_cycle;Max_cycle;Signal;HPM_P1;HPM_P2
2021/12/06 00:00:40;;;;;;;;;;;;;;;19.80;45.30;99531.47;2095928;28;19920;-65
2021/12/06 00:01:44;;;;;;;;;;;;;;;19.76;45.28;99535.53;2095784;28;19955;-65
2021/12/06 00:02:45;;;;;;;;;;;;;;;19.78;45.33;99544.44;2096529;28;20006;-65
2021/12/06 00:03:50;;;;;;;;;;;;;;;19.77;45.46;99532.66;2096391;28;19916;-65
2021/12/06 00:04:51;;;;;;;;;;;;;;;19.77;45.44;99537.25;2103575;28;19915;-65
2021/12/06 00:05:52;;;;;;;;;;;;;;;19.76;45.38;99538.28;2090012;28;20434;-65
2021/12/06 00:06:54;;;;;;;;;;;;;;;19.76;45.52;99535.53;2094343;28;20338;-65
2021/12/06 00:07:55;;;;;;;;;;;;;;;19.77;45.49;99531.78;2095988;28;20059;-65
2021/12/06 00:08:55;;;;;;;;;;;;;;;19.77;45.44;99537.25;2096547;28;19924;-65
2021/12/06 00:09:55;;;;;;;;;;;;;;;19.77;45.42;99539.97;2095485;28;20050;-65
2021/12/06 00:11:09;;;;;;;;;;;;;;;19.75;45.51;99542.06;2096603;28;19912;-65
2021/12/06 00:12:10;;;;;;;;;;;;;;;19.74;45.62;99537.59;2093429;28;19919;-65
2021/12/06 00:13:12;;;;;;;;;;;;;;;19.74;45.61;99543.91;2095140;28;19960;-65
2021/12/06 00:14:12;;;;;;;;;;;;;;;19.73;45.64;99541.34;2091351;28;19913;-66
2021/12/06 00:15:13;;;;;;;;;;;;;;;19.73;45.52;99541.34;2081647;28;19920;-65
2021/12/06 00:16:18;;;;;;;;;;;;;;;19.73;45.55;99541.34;2082873;28;19956;-66
2021/12/06 00:17:19;;;;;;;;;;;;;;;19.73;45.67;99546.81;2080515;28;20404;-66
2021/12/06 00:18:19;;;;;;;;;;;;;;;19.72;45.48;99545.09;2079154;28;19962;-66
2021/12/06 00:19:20;;;;;;;;;;;;;;;19.71;45.60;99552.44;2074764;28;20799;-63
2021/12/06 00:20:20;;;;;;;;;;;;;;;19.72;45.54;99556.03;2082898;28;20371;-65
2021/12/06 00:21:21;;;;;;;;;;;;;;;19.72;45.62;99562.38;2086353;28;20371;-64
2021/12/06 00:22:23;;;;;;;;;;;;;;;19.70;45.62;99559.81;2092834;28;20418;-65
2021/12/06 00:23:23;;;;;;;;;;;;;;;19.70;45.62;99562.53;2094297;28;19916;-64
2021/12/06 00:24:23;;;;;;;;;;;;;;;19.70;45.71;99559.81;2095839;28;19999;-64
2021/12/06 00:25:24;;;;;;;;;;;;;;;19.70;45.67;99554.34;2096555;28;19913;-64
2021/12/06 00:26:24;;;;;;;;;;;;;;;19.69;45.72;99558.06;2090836;28;20667;-62
2021/12/06 00:27:25;;;;;;;;;;;;;;;19.69;45.76;99558.06;2088601;28;19920;-62
2021/12/06 00:28:26;;;;;;;;;;;;;;;19.68;45.57;99556.38;2087286;28;20589;-62
2021/12/06 00:29:26;;;;;;;;;;;;;;;19.69;45.66;99551.75;2084236;28;19944;-62
2021/12/06 00:30:26;;;;;;;;;;;;;;;19.67;45.58;99554.69;2087576;28;20353;-62
2021/12/06 00:31:31;;;;;;;;;;;;;;;19.67;45.74;99556.50;2085273;28;19924;-62
2021/12/06 00:32:32;;;;;;;;;;;;;;;19.68;45.64;99561.84;2081066;28;19956;-62
2021/12/06 00:33:32;;;;;;;;;;;;;;;19.67;45.68;99560.16;2085599;28;19923;-63
2021/12/06 00:34:35;;;;;;;;;;;;;;;19.67;45.79;99561.97;2083106;28;19917;-63
2021/12/06 00:35:35;;;;;;;;;;;;;;;19.65;45.79;99551.22;2082706;28;19924;-63
2021/12/06 00:36:38;;;;;;;;;;;;;;;19.65;45.65;99553.94;2082245;28;19920;-63
2021/12/06 00:37:52;;;;;;;;;;;;;;;19.66;45.67;99563.84;2084973;28;19916;-63
2021/12/06 00:38:53;;;;;;;;;;;;;;;19.65;45.71;99562.16;2080182;28;20311;-63
2021/12/06 00:39:55;;;;;;;;;;;;;;;19.65;45.74;99556.69;2084023;28;19912;-63
2021/12/06 00:40:55;;;;;;;;;;;;;;;19.65;45.83;99566.78;2085351;28;20719;-63
2021/12/06 00:41:55;;;;;;;;;;;;;;;19.63;45.81;99566.94;2084043;28;20346;-63
2021/12/06 00:42:56;;;;;;;;;;;;;;;19.63;45.87;99564.19;2084170;28;19913;-63
2021/12/06 00:43:56;;;;;;;;;;;;;;;19.64;45.92;99565.88;2084443;28;19951;-63
2021/12/06 00:44:57;;;;;;;;;;;;;;;19.64;45.85;99565.88;2083099;28;20341;-62
2021/12/06 00:45:57;;;;;;;;;;;;;;;19.63;45.99;99558.72;2085406;28;19912;-63
2021/12/06 00:46:57;;;;;;;;;;;;;;;19.64;45.88;99559.56;2078857;28;20497;-63
2021/12/06 00:47:58;;;;;;;;;;;;;;;19.62;45.93;99559.75;2081601;28;20020;-63
2021/12/06 00:48:59;;;;;;;;;;;;;;;19.63;45.97;99560.59;2078858;28;20311;-65
2021/12/06 00:49:59;;;;;;;;;;;;;;;19.63;45.92;99571.53;2080830;28;19923;-63
2021/12/06 00:51:00;;;;;;;;;;;;;;;19.62;45.89;99565.22;2080858;28;20526;-63
2021/12/06 00:52:00;;;;;;;;;;;;;;;19.62;45.89;99562.50;2078541;28;19923;-63
2021/12/06 00:53:01;;;;;;;;;;;;;;;19.61;45.75;99562.66;2082486;28;20348;-63
2021/12/06 00:54:01;;;;;;;;;;;;;;;19.60;45.94;99563.66;2082173;28;19909;-63
2021/12/06 00:55:02;;;;;;;;;;;;;;;19.60;46.03;99564.53;2081620;28;19970;-62
2021/12/06 00:56:02;;;;;;;;;;;;;;;19.60;46.02;99564.53;2082347;28;20283;-63
2021/12/06 00:57:07;;;;;;;;;;;;;;;19.57;46.05;99559.38;2083725;28;19935;-62
2021/12/06 00:58:07;;;;;;;;;;;;;;;19.59;46.06;99562.81;2081174;28;19985;-63
2021/12/06 00:59:08;;;;;;;;;;;;;;;19.57;46.06;99564.84;2083629;28;19970;-63
2021/12/06 01:00:10;;;;;;;;;;;;;;;19.57;46.10;99567.56;2083001;28;20401;-63
2021/12/06 01:01:11;;;;;;;;;;;;;;;19.57;46.06;99564.84;2082682;28;19909;-63
2021/12/06 01:02:12;;;;;;;;;;;;;;;19.58;46.06;99565.72;2082371;28;20955;-63
2021/12/06 01:03:15;;;;;;;;;;;;;;;19.55;46.12;99561.44;2081733;28;20961;-63
2021/12/06 01:04:16;;;;;;;;;;;;;;;19.55;46.23;99566.91;2083376;28;19916;-63
2021/12/06 01:05:17;;;;;;;;;;;;;;;19.55;46.19;99569.66;2082730;28;19904;-63
2021/12/06 01:06:17;;;;;;;;;;;;;;;19.54;46.23;99570.66;2083557;28;19943;-63
2021/12/06 01:07:18;;;;;;;;;;;;;;;19.54;46.25;99559.72;2078644;28;19967;-63
2021/12/06 01:08:18;;;;;;;;;;;;;;;19.54;46.23;99569.78;2083526;28;19916;-63
2021/12/06 01:09:19;;;;;;;;;;;;;;;19.52;46.06;99569.94;2082297;28;19955;-62
2021/12/06 01:10:20;;;;;;;;;;;;;;;19.52;46.26;99567.22;2091412;28;19912;-62
2021/12/06 01:11:20;;;;;;;;;;;;;;;19.51;46.28;99570.97;2091308;28;20619;-63
2021/12/06 01:12:20;;;;;;;;;;;;;;;19.50;46.16;99566.56;2082600;28;19920;-62
2021/12/06 01:13:21;;;;;;;;;;;;;;;19.51;46.19;99564.66;2085202;28;19916;-63
2021/12/06 01:14:22;;;;;;;;;;;;;;;19.50;46.15;99563.81;2083712;28;20364;-63
2021/12/06 01:15:22;;;;;;;;;;;;;;;19.49;46.34;99557.47;2086050;28;19918;-62
2021/12/06 01:16:24;;;;;;;;;;;;;;;19.50;46.33;99566.56;2084238;28;19916;-62
2021/12/06 01:17:25;;;;;;;;;;;;;;;19.47;46.18;99564.13;2084959;28;19923;-63
2021/12/06 01:18:25;;;;;;;;;;;;;;;19.49;46.32;99567.56;2082376;28;20458;-62
2021/12/06 01:19:29;;;;;;;;;;;;;;;19.48;46.35;99571.31;2085785;28;19916;-65
2021/12/06 01:20:39;;;;;;;;;;;;;;;19.48;46.30;99569.44;2082912;28;19916;-62
2021/12/06 01:21:48;;;;;;;;;;;;;;;19.47;46.31;99575.06;2081439;28;19916;-63
2021/12/06 01:23:05;;;;;;;;;;;;;;;19.46;46.33;99576.94;2080480;28;19973;-63
2021/12/06 01:24:05;;;;;;;;;;;;;;;19.46;46.29;99573.34;2082552;28;19923;-63
2021/12/06 01:25:17;;;;;;;;;;;;;;;19.46;46.35;99570.63;2081971;28;20015;-63
2021/12/06 01:26:39;;;;;;;;;;;;;;;19.45;46.40;99571.63;2082149;28;19919;-62
2021/12/06 01:39:49;;;;;;;;;;;;;;;19.38;46.40;99576.91;2091762;28;19916;-65
2021/12/06 01:40:49;;;;;;;;;;;;;;;19.39;46.44;99578.63;2097751;28;19912;-65
2021/12/06 01:41:58;;;;;;;;;;;;;;;19.39;46.43;99577.78;2095946;28;20095;-64
2021/12/06 01:43:03;;;;;;;;;;;;;;;19.36;46.70;99580.84;2097223;28;19961;-65
2021/12/06 01:44:03;;;;;;;;;;;;;;;19.36;46.46;99578.97;2092209;28;20378;-64
2021/12/06 01:45:04;;;;;;;;;;;;;;;19.36;46.52;99583.56;2096500;28;20325;-65
2021/12/06 01:46:04;;;;;;;;;;;;;;;19.35;46.46;99582.69;2097353;28;19913;-65
2021/12/06 01:47:07;;;;;;;;;;;;;;;19.35;46.53;99588.16;2096200;28;19975;-65
2021/12/06 01:48:07;;;;;;;;;;;;;;;19.34;46.51;99580.16;2095018;28;20460;-65
2021/12/06 01:49:08;;;;;;;;;;;;;;;19.35;46.52;99581.84;2097303;28;19934;-65
2021/12/06 01:50:11;;;;;;;;;;;;;;;19.34;46.61;99591.06;2096238;28;19916;-65
2021/12/06 01:51:12;;;;;;;;;;;;;;;19.33;46.52;99578.41;2096840;28;20391;-65
2021/12/06 01:52:17;;;;;;;;;;;;;;;19.32;46.70;99587.66;2096396;28;20274;-65
2021/12/06 01:53:18;;;;;;;;;;;;;;;19.32;46.63;99595.84;2095498;28;19916;-65
2021/12/06 01:54:19;;;;;;;;;;;;;;;19.32;46.55;99593.09;2092737;28;20307;-66
2021/12/06 01:55:24;;;;;;;;;;;;;;;19.31;46.58;99596.88;2091431;28;19962;-65
2021/12/06 01:56:24;;;;;;;;;;;;;;;19.30;46.70;99584.22;2089100;28;19917;-66
2021/12/06 01:59:02;;;;;;;;;;;;;;;19.27;46.61;99591.72;2091918;28;19925;-66
2021/12/06 02:00:08;;;;;;;;;;;;;;;19.29;46.56;99594.28;2092758;28;20317;-66
2021/12/06 02:01:09;;;;;;;;;;;;;;;19.28;46.74;99596.19;2096312;28;19920;-66
2021/12/06 02:02:10;;;;;;;;;;;;;;;19.27;46.62;99591.72;2094327;28;19920;-65
2021/12/06 02:03:12;;;;;;;;;;;;;;;19.26;46.75;99584.53;2097129;28;19913;-65
2021/12/06 02:04:13;;;;;;;;;;;;;;;19.26;46.76;99589.16;2095334;28;19923;-65
2021/12/06 02:05:13;;;;;;;;;;;;;;;19.25;46.80;99591.00;2094851;28;19909;-65
2021/12/06 02:06:14;;;;;;;;;;;;;;;19.25;46.76;99591.00;2096510;28;19912;-65
2021/12/06 02:07:16;;;;;;;;;;;;;;;19.25;46.66;99588.28;2094687;28;19917;-66
2021/12/06 02:08:16;;;;;;;;;;;;;;;19.25;46.74;99598.38;2096668;28;19936;-65
2021/12/06 02:09:18;;;;;;;;;;;;;;;19.24;46.80;99592.03;2089817;28;19920;-65
2021/12/06 02:10:19;;;;;;;;;;;;;;;19.24;46.77;99592.03;2096030;28;19927;-65
2021/12/06 02:11:23;;;;;;;;;;;;;;;19.23;46.83;99595.81;2097517;28;20398;-65
2021/12/06 02:12:27;;;;;;;;;;;;;;;19.24;46.73;99602.13;2096629;28;19912;-65
2021/12/06 02:13:32;;;;;;;;;;;;;;;19.23;46.83;99600.41;2096551;28;19952;-66
2021/12/06 02:14:51;;;;;;;;;;;;;;;19.22;46.88;99601.44;2097381;28;20370;-65
2021/12/06 02:15:54;;;;;;;;;;;;;;;19.22;46.93;99601.44;2103050;28;19916;-65
2021/12/06 02:17:14;;;;;;;;;;;;;;;19.22;46.79;99604.16;2095896;28;20398;-65
2021/12/06 02:18:37;;;;;;;;;;;;;;;19.22;46.81;99605.00;2095781;28;19920;-65
2021/12/06 02:19:40;;;;;;;;;;;;;;;19.22;46.72;99606.91;2095821;28;20014;-65
2021/12/06 02:21:01;;;;;;;;;;;;;;;19.20;46.84;99595.25;2096016;28;19936;-65
2021/12/06 02:22:02;;;;;;;;;;;;;;;19.20;46.81;99604.31;2091090;28;20003;-65
2021/12/06 02:23:03;;;;;;;;;;;;;;;19.20;46.79;99609.78;2088978;28;20375;-65
2021/12/06 02:24:08;;;;;;;;;;;;;;;19.19;46.88;99597.16;2091191;28;20030;-65
2021/12/06 02:25:14;;;;;;;;;;;;;;;19.19;46.88;99594.41;2095937;28;19971;-65
2021/12/06 02:26:16;;;;;;;;;;;;;;;19.18;46.83;99600.91;2096360;28;19958;-65
2021/12/06 02:27:16;;;;;;;;;;;;;;;19.18;46.93;99605.50;2092939;28;19962;-65
2021/12/06 02:28:17;;;;;;;;;;;;;;;19.18;46.87;99600.91;2095358;28;19966;-65
2021/12/06 02:29:17;;;;;;;;;;;;;;;19.17;46.97;99596.44;2097142;28;19964;-65
2021/12/06 02:30:18;;;;;;;;;;;;;;;19.17;46.96;99603.78;2093003;28;19921;-65
2021/12/06 02:31:20;;;;;;;;;;;;;;;19.16;46.93;99600.22;2095005;28;19912;-65
2021/12/06 02:32:21;;;;;;;;;;;;;;;19.15;47.01;99603.94;2096986;28;20252;-65
2021/12/06 02:33:22;;;;;;;;;;;;;;;19.15;47.11;99593.00;2096734;28;19977;-65
2021/12/06 02:34:23;;;;;;;;;;;;;;;19.15;47.02;99603.94;2092439;28;19917;-65
2021/12/06 02:35:23;;;;;;;;;;;;;;;19.14;46.92;99598.66;2090411;28;19974;-65
2021/12/06 02:36:24;;;;;;;;;;;;;;;19.15;46.95;99603.09;2094618;28;19912;-65
2021/12/06 02:37:28;;;;;;;;;;;;;;;19.14;47.00;99601.41;2097107;28;19913;-65
2021/12/06 02:38:28;;;;;;;;;;;;;;;19.13;47.12;99603.25;2092737;28;20008;-65
2021/12/06 02:39:30;;;;;;;;;;;;;;;19.14;47.07;99602.25;2096846;28;19920;-65
2021/12/06 02:40:32;;;;;;;;;;;;;;;19.13;47.10;99600.50;2090289;28;20410;-65
2021/12/06 02:41:33;;;;;;;;;;;;;;;19.13;47.14;99603.25;2093231;28;19922;-65
2021/12/06 02:42:34;;;;;;;;;;;;;;;19.12;46.96;99600.69;2097170;28;19919;-64
2021/12/06 02:43:41;;;;;;;;;;;;;;;19.11;47.10;99602.56;2096674;28;19956;-65
2021/12/06 02:44:43;;;;;;;;;;;;;;;19.11;47.04;99607.16;2094978;28;20461;-65
2021/12/06 02:45:44;;;;;;;;;;;;;;;19.11;47.27;99602.56;2097250;28;19916;-65
2021/12/06 02:46:44;;;;;;;;;;;;;;;19.09;47.20;99610.06;2093597;28;19912;-65
2021/12/06 02:47:52;;;;;;;;;;;;;;;19.10;47.20;99605.47;2096876;28;19923;-65
2021/12/06 02:48:52;;;;;;;;;;;;;;;19.10;47.12;99610.91;2089372;28;19913;-65
2021/12/06 02:49:53;;;;;;;;;;;;;;;19.09;47.21;99611.94;2096787;28;19923;-65
2021/12/06 02:50:55;;;;;;;;;;;;;;;19.08;47.21;99615.69;2103205;28;19975;-65
2021/12/06 02:51:56;;;;;;;;;;;;;;;19.08;47.23;99624.72;2104289;28;20364;-65
2021/12/06 02:52:57;;;;;;;;;;;;;;;19.08;47.21;99618.41;2097141;28;19981;-67
2021/12/06 02:53:57;;;;;;;;;;;;;;;19.07;47.26;99620.31;2096688;28;20264;-65
2021/12/06 02:54:59;;;;;;;;;;;;;;;19.07;47.14;99623.03;2095596;28;19916;-65
2021/12/06 02:56:06;;;;;;;;;;;;;;;19.06;47.26;99624.06;2095952;28;20225;-65
2021/12/06 02:59:44;;;;;;;;;;;;;;;19.04;47.41;99613.28;2069928;28;19999;-65
2021/12/06 03:00:46;;;;;;;;;;;;;;;19.04;47.24;99612.44;2093666;28;19924;-65
2021/12/06 03:01:49;;;;;;;;;;;;;;;19.02;47.36;99611.72;2095715;28;20383;-64
2021/12/06 03:02:55;;;;;;;;;;;;;;;19.03;47.42;99617.03;2096869;28;20383;-65
2021/12/06 03:03:56;;;;;;;;;;;;;;;19.03;47.40;99610.69;2096296;28;20371;-65
2021/12/06 03:04:57;;;;;;;;;;;;;;;19.02;47.46;99614.47;2096489;28;20290;-65
2021/12/06 03:05:59;;;;;;;;;;;;;;;19.03;47.44;99616.16;2096441;28;20321;-65
2021/12/06 03:06:59;;;;;;;;;;;;;;;19.02;47.32;99626.25;2079558;28;19921;-66
2021/12/06 03:08:02;;;;;;;;;;;;;;;19.01;47.43;99624.53;2083596;28;19912;-66
2021/12/06 03:09:06;;;;;;;;;;;;;;;19.02;47.44;99625.38;2081813;28;20314;-66
2021/12/06 03:10:08;;;;;;;;;;;;;;;19.01;47.35;99626.38;2088080;28;20341;-66
2021/12/06 03:11:19;;;;;;;;;;;;;;;19.00;47.35;99621.97;2084507;28;19955;-65
2021/12/06 03:12:22;;;;;;;;;;;;;;;19.00;47.42;99633.72;2081186;28;19920;-65
2021/12/06 03:13:22;;;;;;;;;;;;;;;18.98;47.48;99619.38;2082308;28;20367;-66
2021/12/06 03:14:26;;;;;;;;;;;;;;;18.98;47.50;99616.66;2084266;28;20355;-66
2021/12/06 03:15:27;;;;;;;;;;;;;;;18.98;47.35;99624.84;2082218;28;19916;-67
2021/12/06 03:16:28;;;;;;;;;;;;;;;18.97;47.50;99622.28;2063771;28;19995;-66
2021/12/06 03:17:29;;;;;;;;;;;;;;;18.97;47.53;99634.06;2074076;28;20006;-66
2021/12/06 03:18:29;;;;;;;;;;;;;;;18.95;47.57;99624.31;2082313;28;19921;-66
2021/12/06 03:19:30;;;;;;;;;;;;;;;18.96;47.45;99626.00;2084042;28;19917;-65
2021/12/06 03:20:30;;;;;;;;;;;;;;;18.95;47.60;99621.59;2081991;28;20823;-66
2021/12/06 03:21:31;;;;;;;;;;;;;;;18.94;47.50;99622.63;2081561;28;19921;-66
2021/12/06 03:22:31;;;;;;;;;;;;;;;18.95;47.59;99613.41;2088590;28;20146;-65
2021/12/06 03:23:32;;;;;;;;;;;;;;;18.93;47.48;99624.47;2083167;28;19916;-65
2021/12/06 03:24:32;;;;;;;;;;;;;;;18.93;47.57;99626.34;2086152;28;19939;-65
2021/12/06 03:25:32;;;;;;;;;;;;;;;18.93;47.41;99620.88;2082562;28;19944;-66
2021/12/06 03:26:33;;;;;;;;;;;;;;;18.93;47.53;99623.63;2082794;28;20130;-66
2021/12/06 03:27:34;;;;;;;;;;;;;;;18.92;47.52;99621.91;2078524;28;19928;-67
2021/12/06 03:28:39;;;;;;;;;;;;;;;18.91;47.49;99620.19;2085636;28;20680;-64
2021/12/06 03:29:40;;;;;;;;;;;;;;;18.91;47.53;99617.44;2083819;28;19994;-64
2021/12/06 03:30:40;;;;;;;;;;;;;;;18.91;47.61;99629.22;2084911;28;19916;-64
2021/12/06 03:31:41;;;;;;;;;;;;;;;18.90;47.63;99632.13;2082235;28;19924;-65
2021/12/06 03:32:42;;;;;;;;;;;;;;;18.90;47.43;99632.13;2087554;28;19924;-65
2021/12/06 03:33:43;;;;;;;;;;;;;;;18.90;47.74;99621.22;2079093;28;19917;-62
2021/12/06 03:34:44;;;;;;;;;;;;;;;18.89;47.63;99630.41;2088089;28;20317;-62
2021/12/06 03:35:44;;;;;;;;;;;;;;;18.89;47.52;99633.13;2087515;28;20577;-65
2021/12/06 03:36:45;;;;;;;;;;;;;;;18.89;47.65;99633.13;2079023;28;19920;-65
2021/12/06 03:37:45;;;;;;;;;;;;;;;18.88;47.57;99631.44;2080246;28;19938;-65
2021/12/06 03:38:46;;;;;;;;;;;;;;;18.88;47.49;99628.69;2081929;28;20035;-65
2021/12/06 03:39:47;;;;;;;;;;;;;;;18.88;47.62;99623.25;2083667;28;19931;-65
2021/12/06 03:40:48;;;;;;;;;;;;;;;18.88;47.48;99623.25;2083014;28;19916;-65
2021/12/06 03:41:50;;;;;;;;;;;;;;;18.88;47.68;99623.25;2084013;28;19917;-65
2021/12/06 03:42:50;;;;;;;;;;;;;;;18.86;47.69;99620.66;2083504;28;19939;-65
2021/12/06 03:43:51;;;;;;;;;;;;;;;18.87;47.61;99627.00;2083119;28;19920;-65
2021/12/06 03:44:52;;;;;;;;;;;;;;;18.87;47.81;99616.06;2082288;28;19925;-65
2021/12/06 03:45:53;;;;;;;;;;;;;;;18.87;47.77;99621.53;2078296;28;19916;-66
2021/12/06 03:46:55;;;;;;;;;;;;;;;18.85;47.72;99622.53;2084246;28;19912;-65
2021/12/06 03:47:56;;;;;;;;;;;;;;;18.85;47.71;99622.53;2078461;28;19916;-65
2021/12/06 03:48:56;;;;;;;;;;;;;;;18.83;47.68;99627.28;2089345;28;19916;-65
2021/12/06 03:49:57;;;;;;;;;;;;;;;18.84;47.67;99622.72;2086588;28;19916;-65
2021/12/06 03:50:59;;;;;;;;;;;;;;;18.83;47.63;99621.84;2082343;28;19912;-65
2021/12/06 03:52:00;;;;;;;;;;;;;;;18.83;47.61;99623.72;2084103;28;19912;-65
2021/12/06 03:53:01;;;;;;;;;;;;;;;18.81;47.64;99623.91;2090152;28;19918;-64
2021/12/06 03:54:01;;;;;;;;;;;;;;;18.81;47.89;99623.91;2090076;28;19926;-65
2021/12/06 03:55:06;;;;;;;;;;;;;;;18.81;47.78;99625.75;2083297;28;19913;-66
2021/12/06 03:56:06;;;;;;;;;;;;;;;18.81;47.88;99626.63;2081273;28;19923;-66
2021/12/06 03:57:07;;;;;;;;;;;;;;;18.81;47.91;99623.00;2083990;28;19940;-66
2021/12/06 03:58:07;;;;;;;;;;;;;;;18.79;47.62;99623.19;2084100;28;19920;-66
2021/12/06 03:59:08;;;;;;;;;;;;;;;18.80;47.70;99627.63;2089273;28;19920;-66
2021/12/06 04:00:08;;;;;;;;;;;;;;;18.80;47.65;99626.78;2090532;28;19960;-65
2021/12/06 04:01:09;;;;;;;;;;;;;;;18.79;47.75;99619.56;2082655;28;19962;-65
2021/12/06 04:02:09;;;;;;;;;;;;;;;18.78;47.77;99624.19;2083101;28;19970;-66
2021/12/06 04:03:10;;;;;;;;;;;;;;;18.78;47.89;99620.59;2081974;28;19916;-65
2021/12/06 04:04:10;;;;;;;;;;;;;;;18.78;47.72;99632.38;2082912;28;19913;-66
2021/12/06 04:05:11;;;;;;;;;;;;;;;18.78;47.87;99634.25;2082184;28;20049;-66
2021/12/06 04:06:12;;;;;;;;;;;;;;;18.77;47.78;99638.03;2084016;28;19916;-65
2021/12/06 04:07:14;;;;;;;;;;;;;;;18.76;47.83;99642.59;2083071;28;19924;-65
2021/12/06 04:08:14;;;;;;;;;;;;;;;18.76;47.77;99639.88;2081963;28;19963;-65
2021/12/06 04:09:15;;;;;;;;;;;;;;;18.75;47.79;99640.88;2091331;28;19908;-64
2021/12/06 04:10:15;;;;;;;;;;;;;;;18.76;47.77;99641.75;2091687;28;19916;-65
2021/12/06 04:11:16;;;;;;;;;;;;;;;18.75;47.82;99643.59;2084613;28;19923;-65
2021/12/06 04:12:16;;;;;;;;;;;;;;;18.75;47.67;99638.13;2085603;28;20652;-65
2021/12/06 04:13:17;;;;;;;;;;;;;;;18.75;47.79;99640.88;2081615;28;20318;-65
2021/12/06 04:14:18;;;;;;;;;;;;;;;18.74;47.68;99641.00;2086182;28;19917;-65
2021/12/06 04:15:18;;;;;;;;;;;;;;;18.73;47.67;99653.81;2084197;28;19920;-65
2021/12/06 04:16:18;;;;;;;;;;;;;;;18.72;47.75;99646.66;2084049;28;20780;-65
2021/12/06 04:17:19;;;;;;;;;;;;;;;18.72;47.92;99646.66;2084873;28;19924;-65
2021/12/06 04:18:19;;;;;;;;;;;;;;;18.72;47.82;99657.56;2084213;28;20614;-65
2021/12/06 04:19:20;;;;;;;;;;;;;;;18.71;47.84;99650.38;2085064;28;20317;-65
2021/12/06 04:20:20;;;;;;;;;;;;;;;18.72;47.90;99651.25;2084310;28;19917;-65
2021/12/06 04:21:21;;;;;;;;;;;;;;;18.71;47.93;99655.84;2084351;28;20391;-65
2021/12/06 04:22:21;;;;;;;;;;;;;;;18.71;47.95;99655.84;2092916;28;19923;-65
2021/12/06 04:23:22;;;;;;;;;;;;;;;18.70;47.79;99662.31;2084192;28;19943;-66
2021/12/06 04:24:22;;;;;;;;;;;;;;;18.69;47.85;99652.44;2085594;28;20059;-66
2021/12/06 04:25:23;;;;;;;;;;;;;;;18.69;47.78;99652.44;2084582;28;19908;-66
2021/12/06 04:26:24;;;;;;;;;;;;;;;18.69;47.80;99657.00;2084517;28;19931;-66
2021/12/06 04:27:24;;;;;;;;;;;;;;;18.68;47.83;99667.09;2084038;28;19970;-66
2021/12/06 04:28:28;;;;;;;;;;;;;;;18.68;47.88;99669.81;2085830;28;19917;-66
2021/12/06 04:29:28;;;;;;;;;;;;;;;18.67;47.83;99665.38;2079583;28;20598;-66
2021/12/06 04:30:29;;;;;;;;;;;;;;;18.67;47.87;99665.38;2082606;28;20833;-66
2021/12/06 04:31:30;;;;;;;;;;;;;;;18.67;48.03;99673.56;2086377;28;19934;-66
2021/12/06 04:32:31;;;;;;;;;;;;;;;18.67;47.95;99668.13;2084292;28;19917;-66
2021/12/06 04:33:31;;;;;;;;;;;;;;;18.65;47.94;99672.88;2084364;28;19921;-66
2021/12/06 04:34:31;;;;;;;;;;;;;;;18.64;47.79;99676.59;2084336;28;19909;-67
2021/12/06 04:35:33;;;;;;;;;;;;;;;18.64;47.81;99679.31;2083707;28;19916;-64
2021/12/06 04:36:33;;;;;;;;;;;;;;;18.64;47.89;99682.94;2085712;28;20012;-64
2021/12/06 04:37:34;;;;;;;;;;;;;;;18.64;47.87;99676.59;2082961;28;20417;-64
2021/12/06 04:38:35;;;;;;;;;;;;;;;18.63;48.07;99680.34;2085070;28;19982;-64
2021/12/06 04:39:35;;;;;;;;;;;;;;;18.64;47.95;99682.06;2084497;28;19916;-64
2021/12/06 04:40:36;;;;;;;;;;;;;;;18.62;48.00;99681.38;2083436;28;20333;-64
2021/12/06 04:41:37;;;;;;;;;;;;;;;18.62;48.06;99676.78;2085637;28;20657;-64
2021/12/06 04:42:37;;;;;;;;;;;;;;;18.62;47.93;99678.66;2083447;28;20276;-64
2021/12/06 04:43:38;;;;;;;;;;;;;;;18.62;47.80;99686.84;2091014;28;20367;-64
2021/12/06 04:44:38;;;;;;;;;;;;;;;18.61;48.00;99687.84;2093277;28;19916;-64
2021/12/06 04:45:38;;;;;;;;;;;;;;;18.60;48.00;99686.97;2083500;28;19909;-64
2021/12/06 04:46:39;;;;;;;;;;;;;;;18.61;48.01;99682.38;2085172;28;19916;-64
2021/12/06 04:47:39;;;;;;;;;;;;;;;18.60;47.92;99691.59;2081720;28;19924;-64
2021/12/06 04:48:40;;;;;;;;;;;;;;;18.61;47.99;99687.84;2076876;28;19916;-64
2021/12/06 04:49:40;;;;;;;;;;;;;;;18.60;47.87;99686.13;2085915;28;19916;-64
2021/12/06 04:50:42;;;;;;;;;;;;;;;18.59;47.85;99684.41;2082637;28;20264;-64
2021/12/06 04:51:45;;;;;;;;;;;;;;;18.58;47.89;99688.16;2091397;28;20759;-64
2021/12/06 04:52:45;;;;;;;;;;;;;;;18.58;47.92;99689.00;2084468;28;20011;-64
2021/12/06 04:53:47;;;;;;;;;;;;;;;18.58;47.88;99694.47;2083175;28;20373;-64
2021/12/06 04:54:51;;;;;;;;;;;;;;;18.57;48.13;99686.41;2085440;28;19908;-64
2021/12/06 04:56:20;;;;;;;;;;;;;;;18.56;48.05;99685.56;2084919;28;19931;-64
2021/12/06 04:57:23;;;;;;;;;;;;;;;18.56;48.08;99690.19;2075800;28;20375;-64
2021/12/06 04:58:26;;;;;;;;;;;;;;;18.56;47.92;99699.22;2085057;28;19909;-64
2021/12/06 04:59:29;;;;;;;;;;;;;;;18.56;47.89;99695.63;2080708;28;20973;-64
2021/12/06 05:00:33;;;;;;;;;;;;;;;18.56;47.92;99712.00;2080261;28;19931;-64
2021/12/06 05:01:33;;;;;;;;;;;;;;;18.55;47.97;99700.25;2084277;28;19961;-63
2021/12/06 05:02:36;;;;;;;;;;;;;;;18.55;47.82;99707.59;2085576;28;19912;-64
2021/12/06 05:03:37;;;;;;;;;;;;;;;18.55;48.04;99710.31;2080793;28;20589;-64
2021/12/06 05:04:39;;;;;;;;;;;;;;;18.55;48.13;99713.91;2084089;28;19916;-64
2021/12/06 05:05:41;;;;;;;;;;;;;;;18.55;48.17;99715.78;2080481;28;19978;-64
2021/12/06 05:06:43;;;;;;;;;;;;;;;18.54;47.92;99719.50;2090641;28;20559;-64
2021/12/06 05:07:45;;;;;;;;;;;;;;;18.54;48.07;99719.50;2087355;28;19920;-64
2021/12/06 05:08:49;;;;;;;;;;;;;;;18.54;47.97;99724.94;2084950;28;20779;-64
2021/12/06 05:09:49;;;;;;;;;;;;;;;18.53;47.97;99724.09;2084260;28;20359;-64
2021/12/06 05:10:51;;;;;;;;;;;;;;;18.53;48.07;99723.25;2084292;28;19912;-64
2021/12/06 05:11:51;;;;;;;;;;;;;;;18.53;47.99;99728.72;2081596;28;20414;-63
2021/12/06 05:12:52;;;;;;;;;;;;;;;18.52;48.16;99727.84;2084276;28;20330;-64
2021/12/06 05:14:24;;;;;;;;;;;;;;;18.53;47.97;99734.16;2083573;28;20501;-64
2021/12/06 05:15:25;;;;;;;;;;;;;;;18.53;48.06;99747.81;2085269;28;20785;-64
2021/12/06 05:16:25;;;;;;;;;;;;;;;18.52;48.05;99738.78;2089758;28;20566;-64
2021/12/06 05:17:26;;;;;;;;;;;;;;;18.52;48.06;99743.34;2084086;28;19916;-64
2021/12/06 05:18:26;;;;;;;;;;;;;;;18.50;48.04;99738.06;2083920;28;19908;-64
2021/12/06 05:19:26;;;;;;;;;;;;;;;18.51;48.02;99747.09;2082386;28;19909;-64
2021/12/06 05:20:27;;;;;;;;;;;;;;;18.50;48.18;99750.88;2082822;28;19966;-64
2021/12/06 05:21:27;;;;;;;;;;;;;;;18.50;48.15;99742.69;2084476;28;20574;-64
2021/12/06 05:22:28;;;;;;;;;;;;;;;18.50;48.08;99745.41;2082454;28;20284;-64
2021/12/06 05:23:28;;;;;;;;;;;;;;;18.49;48.09;99738.22;2082385;28;20057;-64
2021/12/06 05:24:29;;;;;;;;;;;;;;;18.49;48.18;99738.22;2082936;28;19916;-64
2021/12/06 05:25:29;;;;;;;;;;;;;;;18.48;48.32;99741.97;2083685;28;19916;-64
2021/12/06 05:26:30;;;;;;;;;;;;;;;18.47;48.04;99746.56;2083627;28;19917;-63
2021/12/06 05:27:30;;;;;;;;;;;;;;;18.47;48.04;99745.69;2084851;28;19986;-64
2021/12/06 05:28:34;;;;;;;;;;;;;;;18.47;48.26;99742.97;2082119;28;20692;-64
2021/12/06 05:29:35;;;;;;;;;;;;;;;18.46;48.09;99742.09;2084035;28;19958;-64
2021/12/06 05:30:37;;;;;;;;;;;;;;;18.47;48.16;99746.56;2083888;28;20442;-64
2021/12/06 05:31:42;;;;;;;;;;;;;;;18.46;48.01;99738.53;2085957;28;20343;-64
2021/12/06 05:32:43;;;;;;;;;;;;;;;18.46;48.15;99744.00;2083168;28;19931;-64
2021/12/06 05:33:44;;;;;;;;;;;;;;;18.46;48.23;99752.19;2076820;28;19974;-64
2021/12/06 05:34:46;;;;;;;;;;;;;;;18.45;48.16;99742.25;2079366;28;20709;-64
2021/12/06 05:35:46;;;;;;;;;;;;;;;18.44;48.22;99757.78;2088236;28;19913;-63
2021/12/06 05:36:47;;;;;;;;;;;;;;;18.44;48.14;99752.31;2091592;28;19962;-63
2021/12/06 05:37:49;;;;;;;;;;;;;;;18.43;48.23;99751.47;2091420;28;19913;-63
2021/12/06 05:38:53;;;;;;;;;;;;;;;18.43;48.28;99745.16;2090775;28;20051;-63
2021/12/06 05:39:54;;;;;;;;;;;;;;;18.43;48.31;99756.94;2088317;28;19909;-63